LFBL 210400Z AUTO 01006KT 330V040 9999 FEW016 M00/M03 Q1031 TEMPO BKN013

ElémentsDécodage
LFBL Station météo située sur l'aérodrome de LIMOGES Bellegarde
210400Z émis le 21 du mois à 04h00 UTC
AUTO Bulletin édité par un automate
01006KT vent du 010°, 06 noeuds
330V040 vent de direction variable entre 330° et 040°
9999 visibilité horizontale supérieure à 10 Km
FEW016 nuages rares (1/8 à 2/8) à 1600 pieds
M00/M03 température 00°C, point de rosée -03°C
 soit une humidité relative de 80%
Q1031 la pression au niveau de la mer (QNH) est de 1031 hPa
TEMPO fluctuation temporaire prévue
BKN013 nuages morcelés (5/8 à 7/8) à 1300 pieds